Time;durP1;ratioP1;P1;durP2;ratioP2;P2;SDS_P1;SDS_P2;PMS_P1;PMS_P2;Temp;Humidity;BMP_temperature;BMP_pressure;BME280_temperature;BME280_humidity;BME280_pressure;Samples;Min_cycle;Max_cycle;Signal;HPM_P1;HPM_P2
2023/05/06 00:01:39;;;;;;;8.98;4.82;;;12.90;99.90;;;;;;5023842;28;20033;-85
2023/05/06 00:04:05;;;;;;;6.57;5.25;;;12.80;99.90;;;;;;5028046;28;20033;-85
2023/05/06 00:06:32;;;;;;;7.85;4.93;;;12.90;99.90;;;;;;5027201;28;20033;-84
2023/05/06 00:08:58;;;;;;;13.43;5.00;;;12.80;99.90;;;;;;5023783;28;20041;-85
2023/05/06 00:11:26;;;;;;;8.48;5.18;;;12.70;99.90;;;;;;5023944;28;20033;-85
2023/05/06 00:13:52;;;;;;;9.57;4.95;;;12.80;99.90;;;;;;5022908;28;20386;-86
2023/05/06 00:16:18;;;;;;;7.65;4.55;;;12.80;99.90;;;;;;5023817;28;20025;-84
2023/05/06 00:18:45;;;;;;;8.18;4.60;;;13.00;99.90;;;;;;5022645;28;20040;-85
2023/05/06 00:21:11;;;;;;;8.00;4.38;;;13.00;99.90;;;;;;5025465;28;20026;-85
2023/05/06 00:23:37;;;;;;;8.50;4.40;;;13.00;99.90;;;;;;5025722;28;20037;-85
2023/05/06 00:26:03;;;;;;;9.43;4.35;;;13.10;99.90;;;;;;5019602;28;20052;-85
2023/05/06 00:28:29;;;;;;;9.25;4.20;;;13.00;99.90;;;;;;5024518;28;20033;-85
2023/05/06 00:30:56;;;;;;;8.00;4.25;;;13.00;99.90;;;;;;5026933;28;20022;-85
2023/05/06 00:33:22;;;;;;;9.50;4.72;;;13.10;99.90;;;;;;5024744;28;20052;-85
2023/05/06 00:35:48;;;;;;;10.20;3.97;;;13.00;99.90;;;;;;5038227;28;20045;-85
2023/05/06 00:38:15;;;;;;;6.63;4.30;;;12.90;99.90;;;;;;5020721;28;20026;-85
2023/05/06 00:40:42;;;;;;;4.82;3.45;;;12.70;99.90;;;;;;5018212;28;20041;-86
2023/05/06 00:43:08;;;;;;;10.38;4.40;;;12.50;99.90;;;;;;5044260;28;20037;-86
2023/05/06 00:45:37;;;;;;;6.85;4.28;;;12.30;99.90;;;;;;5028201;28;20041;-85
2023/05/06 00:48:05;;;;;;;9.05;4.95;;;12.10;99.90;;;;;;5025811;28;20060;-85
2023/05/06 00:50:33;;;;;;;7.55;5.07;;;12.00;99.90;;;;;;5029821;28;20026;-84
2023/05/06 00:53:02;;;;;;;8.38;5.35;;;12.10;99.90;;;;;;5031223;28;20434;-85
2023/05/06 00:55:30;;;;;;;7.43;5.05;;;12.00;99.90;;;;;;5024376;28;20036;-85
2023/05/06 00:57:57;;;;;;;11.13;4.30;;;11.90;99.90;;;;;;5020616;28;20048;-85
2023/05/06 01:00:23;;;;;;;6.90;5.00;;;11.80;99.90;;;;;;5031616;28;20104;-85
2023/05/06 01:02:49;;;;;;;7.82;5.40;;;11.80;99.90;;;;;;5021794;28;20028;-85
2023/05/06 01:05:19;;;;;;;11.25;6.53;;;11.70;99.90;;;;;;5027724;28;20048;-85
2023/05/06 01:08:20;;;;;;;8.25;5.45;;;11.70;99.90;;;;;;5022577;28;20338;-85
2023/05/06 01:10:54;;;;;;;8.38;5.18;;;11.70;99.90;;;;;;5024279;28;20395;-85
2023/05/06 01:13:42;;;;;;;9.63;5.40;;;11.60;99.90;;;;;;5024817;28;20029;-85
2023/05/06 01:16:11;;;;;;;9.50;5.43;;;11.50;99.90;;;;;;5045371;28;20057;-84
2023/05/06 01:18:39;;;;;;;7.47;5.35;;;11.50;99.90;;;;;;5028392;28;20022;-85
2023/05/06 01:21:06;;;;;;;10.13;5.90;;;11.50;99.90;;;;;;5029325;28;20450;-85
2023/05/06 01:23:52;;;;;;;9.70;5.72;;;11.40;99.90;;;;;;5023986;28;20026;-86
2023/05/06 01:26:18;;;;;;;9.85;6.05;;;11.30;99.90;;;;;;5028388;28;20050;-85
2023/05/06 01:28:45;;;;;;;9.05;6.00;;;11.30;99.90;;;;;;5024294;28;20040;-86
2023/05/06 01:31:16;;;;;;;11.45;7.07;;;11.30;99.90;;;;;;5025519;28;20394;-86
2023/05/06 01:33:50;;;;;;;;;;;11.30;99.90;;;;;;5029359;28;20359;-85
2023/05/06 01:36:42;;;;;;;10.50;5.75;;;11.20;99.90;;;;;;5041568;28;19906;-85
2023/05/06 01:39:17;;;;;;;10.57;6.00;;;11.30;99.90;;;;;;5030021;28;20034;-86
2023/05/06 01:41:46;;;;;;;13.15;6.18;;;11.20;99.90;;;;;;5030875;28;20137;-85
2023/05/06 01:44:14;;;;;;;20.17;7.45;;;11.10;99.90;;;;;;5026774;28;20033;-86
2023/05/06 01:46:42;;;;;;;14.93;8.35;;;11.20;99.90;;;;;;5030121;28;20435;-85
2023/05/06 01:49:10;;;;;;;10.20;7.15;;;11.10;99.90;;;;;;5026733;28;20136;-85
2023/05/06 01:51:37;;;;;;;9.27;6.50;;;11.10;99.90;;;;;;5025913;28;20450;-86
2023/05/06 01:54:03;;;;;;;13.35;6.43;;;11.10;99.90;;;;;;5027605;28;20362;-86
2023/05/06 01:56:30;;;;;;;12.52;7.00;;;11.10;99.90;;;;;;5030205;28;20159;-86
2023/05/06 01:58:57;;;;;;;11.43;7.55;;;11.10;99.90;;;;;;5025179;28;20459;-87
2023/05/06 02:01:23;;;;;;;13.73;7.53;;;11.10;99.90;;;;;;5038430;28;20045;-86
2023/05/06 02:03:50;;;;;;;11.43;8.32;;;11.00;99.90;;;;;;5025167;28;20049;-86
2023/05/06 02:06:16;;;;;;;13.65;8.15;;;11.00;99.90;;;;;;5010475;28;20038;-86
2023/05/06 02:08:43;;;;;;;13.60;7.65;;;10.90;99.90;;;;;;5026924;28;20044;-86
2023/05/06 02:11:14;;;;;;;15.93;7.80;;;10.80;99.90;;;;;;5024918;28;20040;-86
2023/05/06 02:13:41;;;;;;;15.70;8.45;;;10.80;99.90;;;;;;5038147;28;20356;-86
2023/05/06 02:16:09;;;;;;;14.77;7.95;;;10.70;99.90;;;;;;5029184;28;20029;-86
2023/05/06 02:18:36;;;;;;;12.40;8.20;;;10.70;99.90;;;;;;5025845;28;20358;-86
2023/05/06 02:21:02;;;;;;;15.18;8.07;;;10.70;99.90;;;;;;5025968;28;20046;-86
2023/05/06 02:23:28;;;;;;;16.83;8.80;;;10.70;99.90;;;;;;5027598;28;20033;-86
2023/05/06 02:25:56;;;;;;;14.38;8.27;;;10.60;99.90;;;;;;5021972;28;20455;-86
2023/05/06 02:28:23;;;;;;;14.02;7.75;;;10.50;99.90;;;;;;5025084;28;20037;-85
2023/05/06 02:30:54;;;;;;;11.80;7.45;;;10.30;99.90;;;;;;5030618;28;20049;-86
2023/05/06 02:33:21;;;;;;;10.65;7.95;;;10.20;99.90;;;;;;5039853;28;20052;-85
2023/05/06 02:35:47;;;;;;;13.13;8.15;;;10.10;99.90;;;;;;5025961;28;20029;-86
2023/05/06 02:38:16;;;;;;;10.30;7.95;;;10.20;99.90;;;;;;5026087;28;20044;-85
2023/05/06 02:40:42;;;;;;;17.50;9.20;;;10.20;99.90;;;;;;5025478;28;20037;-86
2023/05/06 02:43:08;;;;;;;12.63;8.50;;;10.00;99.90;;;;;;5023286;28;20358;-85
2023/05/06 02:45:35;;;;;;;13.18;8.30;;;10.00;99.90;;;;;;5025340;28;20037;-86
2023/05/06 02:48:01;;;;;;;11.68;7.88;;;9.90;99.90;;;;;;5029450;28;20451;-84
2023/05/06 02:50:27;;;;;;;15.80;9.20;;;9.90;99.90;;;;;;5042918;28;20030;-85
2023/05/06 02:52:53;;;;;;;11.38;8.82;;;9.80;99.90;;;;;;5029154;28;20021;-86
2023/05/06 02:55:19;;;;;;;14.05;8.02;;;9.70;99.90;;;;;;5024133;28;20026;-85
2023/05/06 02:57:46;;;;;;;14.20;8.20;;;9.80;99.90;;;;;;5027911;28;20469;-87
2023/05/06 03:00:14;;;;;;;13.75;8.00;;;9.70;99.90;;;;;;5033368;28;20025;-85
2023/05/06 03:02:40;;;;;;;13.98;8.23;;;9.70;99.90;;;;;;5027640;28;20025;-86
2023/05/06 03:05:07;;;;;;;11.50;7.47;;;9.60;99.90;;;;;;5029958;28;20394;-86
2023/05/06 03:07:35;;;;;;;30.95;9.82;;;9.60;99.90;;;;;;5021021;28;20030;-86
2023/05/06 03:10:01;;;;;;;30.48;9.98;;;9.60;99.90;;;;;;5032175;28;20045;-85
2023/05/06 03:12:31;;;;;;;12.40;8.85;;;9.60;99.90;;;;;;5031487;28;20044;-85
2023/05/06 03:14:57;;;;;;;12.30;8.60;;;9.40;99.90;;;;;;5021317;28;20041;-84
2023/05/06 03:17:23;;;;;;;12.88;8.88;;;9.60;99.90;;;;;;5028844;28;20044;-84
2023/05/06 03:19:53;;;;;;;13.98;10.27;;;9.60;99.90;;;;;;5039168;28;20041;-86
2023/05/06 03:22:21;;;;;;;16.75;10.55;;;9.70;99.90;;;;;;5033797;28;20033;-85
2023/05/06 03:24:48;;;;;;;14.88;9.98;;;9.60;99.90;;;;;;5020308;28;20056;-87
2023/05/06 03:27:14;;;;;;;14.10;10.00;;;9.50;99.90;;;;;;5029803;28;20045;-85
2023/05/06 03:29:42;;;;;;;12.90;9.20;;;9.50;99.90;;;;;;5045843;28;20132;-85
2023/05/06 03:32:10;;;;;;;14.13;9.88;;;9.50;99.90;;;;;;5032695;28;20042;-85
2023/05/06 03:34:41;;;;;;;16.45;10.18;;;9.50;99.90;;;;;;5029873;28;20465;-85
2023/05/06 03:37:10;;;;;;;14.65;10.13;;;9.50;99.90;;;;;;5021066;28;20431;-85
2023/05/06 03:39:38;;;;;;;19.15;9.27;;;9.50;99.90;;;;;;5026357;28;20045;-85
2023/05/06 03:42:05;;;;;;;17.13;9.15;;;9.40;99.90;;;;;;5026288;28;20045;-86
2023/05/06 03:44:31;;;;;;;15.05;9.02;;;9.40;99.90;;;;;;5025002;28;20475;-85
2023/05/06 03:46:59;;;;;;;14.02;9.27;;;9.30;99.90;;;;;;5027891;28;20489;-85
2023/05/06 03:49:26;;;;;;;21.15;10.23;;;9.30;99.90;;;;;;5029900;28;20033;-84
2023/05/06 03:51:53;;;;;;;20.48;9.48;;;9.30;99.90;;;;;;5027531;28;20048;-86
2023/05/06 03:54:21;;;;;;;13.55;8.60;;;9.40;99.90;;;;;;5038238;28;20053;-85
2023/05/06 03:56:47;;;;;;;18.35;10.13;;;9.30;99.90;;;;;;5033711;28;20048;-85
2023/05/06 03:59:14;;;;;;;15.02;8.57;;;9.20;99.90;;;;;;5037651;28;20040;-86
2023/05/06 04:01:41;;;;;;;20.50;10.63;;;9.20;99.90;;;;;;5043589;28;20034;-85
2023/05/06 04:04:09;;;;;;;17.20;10.30;;;9.30;99.90;;;;;;5034665;28;20117;-86
2023/05/06 04:06:36;;;;;;;15.10;9.30;;;9.30;99.90;;;;;;5024900;28;20369;-85
2023/05/06 04:09:03;;;;;;;17.33;9.82;;;9.30;99.90;;;;;;5021454;28;20136;-85
2023/05/06 04:11:29;;;;;;;16.98;10.82;;;9.30;99.90;;;;;;5042164;28;20049;-85
2023/05/06 04:13:57;;;;;;;12.50;9.05;;;9.30;99.90;;;;;;5022624;28;20049;-86
2023/05/06 04:16:23;;;;;;;12.23;8.75;;;9.20;99.90;;;;;;5045821;28;20033;-85
2023/05/06 04:18:50;;;;;;;13.27;8.40;;;9.20;99.90;;;;;;5044699;28;20366;-86
2023/05/06 04:21:17;;;;;;;14.25;9.00;;;9.20;99.90;;;;;;5019765;28;20080;-86
2023/05/06 04:23:49;;;;;;;17.40;9.40;;;9.20;99.90;;;;;;5021316;28;20036;-86
2023/05/06 04:26:20;;;;;;;16.77;9.20;;;9.20;99.90;;;;;;5035820;28;20049;-85
2023/05/06 04:28:46;;;;;;;13.82;9.00;;;9.30;99.90;;;;;;5024540;28;20490;-85
2023/05/06 04:31:14;;;;;;;13.18;8.40;;;9.30;99.90;;;;;;5033826;28;20030;-85
2023/05/06 04:33:44;;;;;;;13.77;8.35;;;9.40;99.90;;;;;;5038465;28;20037;-85
2023/05/06 04:36:14;;;;;;;13.95;8.52;;;9.40;99.90;;;;;;5035773;28;20034;-85
2023/05/06 04:38:51;;;;;;;15.57;8.27;;;9.50;99.90;;;;;;5023159;28;20042;-85
2023/05/06 04:41:19;;;;;;;13.57;9.20;;;9.70;99.90;;;;;;5025423;28;20060;-84
2023/05/06 04:43:45;;;;;;;15.18;9.23;;;9.90;99.90;;;;;;5027688;28;20045;-85
2023/05/06 04:46:17;;;;;;;14.68;7.65;;;10.30;99.90;;;;;;5028789;28;20041;-85
2023/05/06 04:48:44;;;;;;;9.88;6.93;;;10.80;99.90;;;;;;5025538;28;20116;-85
2023/05/06 04:51:12;;;;;;;8.20;5.88;;;11.30;99.90;;;;;;5027339;28;20462;-84
2023/05/06 04:53:40;;;;;;;9.25;4.63;;;11.90;99.90;;;;;;5025189;28;20096;-85
2023/05/06 04:56:07;;;;;;;6.25;4.13;;;12.20;11.60;;;;;;5028061;28;20454;-85
2023/05/06 04:58:34;;;;;;;6.50;4.00;;;12.70;1.00;;;;;;5023929;28;20060;-85
2023/05/06 05:01:03;;;;;;;4.93;3.33;;;13.60;22.30;;;;;;5024092;28;20041;-86
2023/05/06 05:03:30;;;;;;;4.53;3.08;;;14.40;1.00;;;;;;5018063;28;20044;-86
2023/05/06 05:05:57;;;;;;;4.78;2.80;;;14.70;1.00;;;;;;5023572;28;20046;-86
2023/05/06 05:08:24;;;;;;;4.82;3.40;;;14.80;1.00;;;;;;5019026;28;20034;-86
2023/05/06 05:10:50;;;;;;;3.63;2.80;;;15.80;99.90;;;;;;5023803;28;20037;-86
2023/05/06 05:13:20;;;;;;;4.55;2.88;;;16.30;99.90;;;;;;5034514;28;20033;-86
2023/05/06 05:15:47;;;;;;;5.32;3.20;;;17.10;99.90;;;;;;5026241;28;20057;-86
2023/05/06 05:18:15;;;;;;;4.40;3.50;;;17.40;99.90;;;;;;5035977;28;20478;-86
2023/05/06 05:20:43;;;;;;;6.22;2.92;;;17.70;99.90;;;;;;5030549;28;20038;-86
2023/05/06 05:23:12;;;;;;;5.70;2.83;;;18.10;99.90;;;;;;5013364;28;20037;-86
2023/05/06 05:25:38;;;;;;;7.97;3.50;;;18.70;99.90;;;;;;5033824;28;20033;-86
2023/05/06 05:28:05;;;;;;;5.00;3.35;;;19.50;99.90;;;;;;5030838;28;20045;-85
2023/05/06 05:30:33;;;;;;;5.32;3.67;;;20.20;94.80;;;;;;5035213;28;20386;-86
2023/05/06 05:32:59;;;;;;;5.57;3.33;;;19.40;99.90;;;;;;5034008;28;20044;-86
2023/05/06 05:35:26;;;;;;;5.68;4.28;;;19.20;99.90;;;;;;5013301;28;20049;-87
2023/05/06 05:37:53;;;;;;;4.70;4.20;;;19.20;99.90;;;;;;5031394;28;20049;-85
2023/05/06 05:40:20;;;;;;;5.57;4.10;;;19.40;99.90;;;;;;5049289;28;20375;-89
2023/05/06 05:42:50;;;;;;;5.93;4.35;;;19.50;99.90;;;;;;5033248;28;20042;-88
2023/05/06 05:45:23;;;;;;;6.97;4.70;;;19.30;99.90;;;;;;5032604;28;20479;-89
2023/05/06 05:47:50;;;;;;;7.43;5.43;;;18.70;99.90;;;;;;5026378;28;20379;-85
2023/05/06 05:50:17;;;;;;;7.40;4.93;;;18.60;99.90;;;;;;5028490;28;20451;-84
2023/05/06 05:52:44;;;;;;;8.23;5.47;;;18.70;99.90;;;;;;5043571;28;20049;-85
2023/05/06 05:55:12;;;;;;;8.52;4.60;;;19.00;99.90;;;;;;5030830;28;20068;-84
2023/05/06 05:57:39;;;;;;;6.35;5.18;;;18.70;99.90;;;;;;5043081;28;20042;-84
2023/05/06 06:00:06;;;;;;;7.78;5.45;;;18.00;99.90;;;;;;5026201;28;20037;-83
2023/05/06 06:02:43;;;;;;;5.63;5.05;;;18.20;99.90;;;;;;5034176;28;20044;-76
2023/05/06 06:05:09;;;;;;;6.72;4.68;;;18.30;99.90;;;;;;5026130;28;20036;-85
2023/05/06 06:07:35;;;;;;;7.25;4.85;;;19.00;99.90;;;;;;5031588;28;20125;-83
2023/05/06 06:10:03;;;;;;;10.00;4.82;;;19.10;99.90;;;;;;5030908;28;20458;-80
2023/05/06 06:12:29;;;;;;;7.03;5.25;;;19.10;99.90;;;;;;5013545;28;20030;-87
2023/05/06 06:14:56;;;;;;;9.63;4.35;;;18.10;99.90;;;;;;5029143;28;20046;-87
2023/05/06 06:17:26;;;;;;;5.18;4.63;;;19.00;99.90;;;;;;5033064;28;20037;-87
2023/05/06 06:19:56;;;;;;;5.30;4.60;;;19.30;99.90;;;;;;5027621;28;20053;-86
2023/05/06 06:22:23;;;;;;;6.57;4.50;;;20.10;99.90;;;;;;5029448;28;20050;-87
2023/05/06 06:24:52;;;;;;;5.63;4.68;;;20.20;99.90;;;;;;5027483;28;20032;-87
2023/05/06 06:27:19;;;;;;;5.90;4.55;;;19.30;99.90;;;;;;5028509;28;20041;-87
2023/05/06 06:29:48;;;;;;;4.80;4.30;;;19.30;99.90;;;;;;5026495;28;20056;-87
2023/05/06 06:32:15;;;;;;;6.45;5.18;;;19.80;99.90;;;;;;5026278;28;20038;-88
2023/05/06 06:34:41;;;;;;;8.13;4.50;;;20.50;99.90;;;;;;5024975;28;20038;-88
2023/05/06 06:37:09;;;;;;;7.10;4.50;;;21.20;37.90;;;;;;5024260;28;20041;-88
2023/05/06 06:39:35;;;;;;;7.95;4.28;;;21.50;1.00;;;;;;5025578;28;20030;-88
2023/05/06 06:42:05;;;;;;;6.97;3.95;;;20.90;12.00;;;;;;5024345;28;20072;-89
2023/05/06 06:44:37;;;;;;;7.60;5.32;;;20.80;99.90;;;;;;5034478;28;20402;-85
2023/05/06 06:47:03;;;;;;;8.85;5.43;;;21.20;34.80;;;;;;5040441;28;20161;-85
2023/05/06 06:49:30;;;;;;;5.45;4.90;;;20.90;23.60;;;;;;5029151;28;20041;-85
2023/05/06 06:51:56;;;;;;;6.57;4.53;;;20.30;96.80;;;;;;5025995;28;20060;-83
2023/05/06 06:54:23;;;;;;;6.88;5.00;;;20.00;95.20;;;;;;5026119;28;20045;-86
2023/05/06 06:56:53;;;;;;;7.55;5.10;;;19.80;99.90;;;;;;5024431;28;20037;-86
2023/05/06 06:59:19;;;;;;;;;;;19.60;99.90;;;;;;5041065;28;20056;-86
2023/05/06 07:01:45;;;;;;;9.35;5.75;;;20.20;99.90;;;;;;5025205;28;20369;-87
2023/05/06 07:04:11;;;;;;;8.07;5.18;;;20.50;99.90;;;;;;5033592;28;20037;-85
2023/05/06 07:06:37;;;;;;;8.32;4.63;;;20.90;87.60;;;;;;5016713;28;20060;-82
2023/05/06 07:09:03;;;;;;;8.27;4.72;;;21.80;42.10;;;;;;5026129;28;20022;-87
2023/05/06 07:11:30;;;;;;;8.13;5.10;;;21.90;28.50;;;;;;5027251;28;20021;-87
2023/05/06 07:13:56;;;;;;;6.88;4.88;;;22.00;35.00;;;;;;5016866;28;20054;-88
2023/05/06 07:16:22;;;;;;;7.05;5.07;;;21.90;36.80;;;;;;5026275;28;20042;-87
2023/05/06 07:18:49;;;;;;;7.53;4.68;;;22.00;29.60;;;;;;5026629;28;20447;-87
2023/05/06 07:21:15;;;;;;;8.00;4.93;;;21.70;18.90;;;;;;5009976;28;20075;-86
2023/05/06 07:23:41;;;;;;;7.63;4.35;;;22.80;1.00;;;;;;5026673;28;20025;-84
2023/05/06 07:26:08;;;;;;;5.72;4.63;;;20.80;11.70;;;;;;5008122;28;20044;-85
2023/05/06 07:28:34;;;;;;;6.55;5.00;;;21.10;51.90;;;;;;5026565;28;20038;-83
2023/05/06 07:31:00;;;;;;;9.30;5.05;;;21.80;1.00;;;;;;5029247;28;20032;-80
2023/05/06 07:33:26;;;;;;;5.75;4.97;;;21.60;1.00;;;;;;5023550;28;20017;-80
2023/05/06 07:35:53;;;;;;;6.95;4.85;;;21.80;1.00;;;;;;5025791;28;20045;-79
2023/05/06 07:38:23;;;;;;;9.30;5.55;;;21.70;1.00;;;;;;5025725;28;20040;-82
2023/05/06 07:40:50;;;;;;;7.03;5.55;;;20.60;18.90;;;;;;5025162;28;20030;-78
2023/05/06 07:43:16;;;;;;;7.40;5.80;;;19.40;88.40;;;;;;5018587;28;20053;-80
2023/05/06 07:45:42;;;;;;;9.80;5.65;;;19.20;99.90;;;;;;5026073;28;20530;-80
2023/05/06 07:48:09;;;;;;;7.30;5.32;;;19.90;51.80;;;;;;5018090;28;20053;-80
2023/05/06 07:50:35;;;;;;;7.50;4.97;;;20.00;62.90;;;;;;5022727;28;20037;-80
2023/05/06 07:53:02;;;;;;;8.93;4.93;;;20.20;81.40;;;;;;5023726;28;20477;-80
2023/05/06 07:55:28;;;;;;;9.70;6.13;;;20.50;28.00;;;;;;5025452;28;20030;-80
2023/05/06 07:57:54;;;;;;;9.05;5.60;;;20.90;44.10;;;;;;5026549;28;20030;-80
2023/05/06 08:00:21;;;;;;;5.47;4.78;;;21.10;4.00;;;;;;5016666;28;20037;-79
2023/05/06 08:02:47;;;;;;;6.72;4.97;;;20.60;1.00;;;;;;5023307;28;20390;-82
2023/05/06 08:05:14;;;;;;;6.32;4.70;;;20.90;6.00;;;;;;5022886;28;20489;-81
2023/05/06 08:07:41;;;;;;;9.43;5.50;;;20.50;53.10;;;;;;5041876;28;20033;-80
2023/05/06 08:10:08;;;;;;;6.43;5.25;;;19.40;52.10;;;;;;5025937;28;20032;-81
2023/05/06 08:12:35;;;;;;;6.95;5.40;;;18.80;99.90;;;;;;5023298;28;20032;-80
2023/05/06 08:15:01;;;;;;;7.80;4.53;;;19.20;99.90;;;;;;5022448;28;20033;-82
2023/05/06 08:17:27;;;;;;;6.07;4.50;;;19.60;82.70;;;;;;5026999;28;20029;-80
2023/05/06 08:19:54;;;;;;;6.35;4.90;;;20.10;22.70;;;;;;5020787;28;20036;-80
2023/05/06 08:22:20;;;;;;;5.50;4.88;;;19.90;35.60;;;;;;5023296;28;20032;-81
2023/05/06 08:24:46;;;;;;;6.07;4.30;;;19.60;50.70;;;;;;5018934;28;20032;-81
2023/05/06 08:27:12;;;;;;;6.38;4.20;;;19.10;58.30;;;;;;5019270;28;20033;-81
2023/05/06 08:29:38;;;;;;;6.55;3.97;;;19.80;23.70;;;;;;5027262;28;20142;-81
2023/05/06 08:32:05;;;;;;;6.07;4.13;;;20.20;52.00;;;;;;5026285;28;20030;-81
2023/05/06 08:34:31;;;;;;;4.78;4.03;;;21.50;1.00;;;;;;5025430;28;20033;-80
2023/05/06 08:36:57;;;;;;;4.72;3.20;;;22.20;1.00;;;;;;5025362;28;20026;-80
2023/05/06 08:39:23;;;;;;;14.18;3.88;;;22.30;1.00;;;;;;5019182;28;20033;-80
2023/05/06 08:41:55;;;;;;;5.20;3.15;;;22.50;1.00;;;;;;5025476;28;20045;-80
2023/05/06 08:44:23;;;;;;;5.05;3.20;;;22.20;1.00;;;;;;5023603;28;20041;-76
2023/05/06 08:46:50;;;;;;;3.60;3.25;;;21.70;1.00;;;;;;5025313;28;20378;-79
2023/05/06 08:49:16;;;;;;;3.92;2.63;;;21.00;1.00;;;;;;5024417;28;20473;-78
2023/05/06 08:51:43;;;;;;;5.45;3.03;;;21.40;1.00;;;;;;5024913;28;20033;-80
2023/05/06 08:54:11;;;;;;;4.13;2.75;;;20.90;1.00;;;;;;5019028;28;20454;-80
2023/05/06 08:56:40;;;;;;;3.95;2.65;;;20.70;1.00;;;;;;5024393;28;20040;-80
2023/05/06 08:59:09;;;;;;;4.22;2.95;;;21.50;1.00;;;;;;5023605;28;20028;-80
2023/05/06 09:01:36;;;;;;;4.07;2.75;;;21.40;1.00;;;;;;5023741;28;20037;-80
2023/05/06 09:04:03;;;;;;;4.65;3.20;;;20.80;1.00;;;;;;5029917;28;20238;-83
2023/05/06 09:06:30;;;;;;;3.60;2.78;;;20.70;1.00;;;;;;5029828;28;20030;-79
2023/05/06 09:08:56;;;;;;;4.78;3.13;;;21.30;1.00;;;;;;5029932;28;20371;-80
2023/05/06 09:11:25;;;;;;;5.15;2.80;;;21.60;1.00;;;;;;5027838;28;20032;-80
2023/05/06 09:14:12;;;;;;;6.57;3.25;;;20.90;1.00;;;;;;5028838;28;20435;-79
2023/05/06 09:16:42;;;;;;;5.00;3.03;;;20.40;1.00;;;;;;5022999;28;20041;-80
2023/05/06 09:19:08;;;;;;;4.65;2.83;;;20.00;1.00;;;;;;5028490;28;20029;-80
2023/05/06 09:21:36;;;;;;;6.38;2.80;;;19.60;7.00;;;;;;5028933;28;20029;-79
2023/05/06 09:24:05;;;;;;;5.43;2.83;;;19.50;6.00;;;;;;5040858;28;20036;-79
2023/05/06 09:26:36;;;;;;;4.10;2.95;;;19.30;13.40;;;;;;5040581;28;20034;-79
2023/05/06 09:29:03;;;;;;;4.60;3.20;;;19.30;18.20;;;;;;5025432;28;20380;-79
2023/05/06 09:31:30;;;;;;;5.70;3.03;;;19.90;11.40;;;;;;5027902;28;20026;-80
2023/05/06 09:33:58;;;;;;;4.57;2.95;;;20.80;1.00;;;;;;5026157;28;20030;-79
2023/05/06 09:36:27;;;;;;;4.65;2.60;;;21.40;1.00;;;;;;5029614;28;20489;-79
2023/05/06 09:38:55;;;;;;;5.07;2.65;;;21.10;1.00;;;;;;5032273;28;20464;-80
2023/05/06 09:41:24;;;;;;;5.60;2.90;;;19.60;1.00;;;;;;5025618;28;20378;-80
2023/05/06 09:43:55;;;;;;;6.65;4.03;;;19.50;9.60;;;;;;5028174;28;20033;-79
2023/05/06 09:46:22;;;;;;;2.72;1.80;;;20.10;1.00;;;;;;5037294;28;20397;-80
2023/05/06 09:48:53;;;;;;;3.40;2.15;;;21.10;1.00;;;;;;5028977;28;20037;-80
2023/05/06 09:51:19;;;;;;;3.15;2.55;;;22.70;1.00;;;;;;5026386;28;20029;-79
2023/05/06 09:53:46;;;;;;;4.88;2.83;;;23.40;1.00;;;;;;5031403;28;20041;-80
2023/05/06 09:56:14;;;;;;;7.53;3.30;;;23.10;1.00;;;;;;5027422;28;20374;-79
2023/05/06 09:58:40;;;;;;;6.13;3.78;;;21.70;1.00;;;;;;5027455;28;20370;-80
2023/05/06 10:01:07;;;;;;;2.90;1.58;;;22.20;1.00;;;;;;5020901;28;20129;-81
2023/05/06 10:03:35;;;;;;;4.15;1.67;;;23.30;1.00;;;;;;5022089;28;20044;-81
2023/05/06 10:06:04;;;;;;;3.28;2.53;;;23.10;1.00;;;;;;5026486;28;20029;-81
2023/05/06 10:08:34;;;;;;;3.50;1.73;;;23.30;1.00;;;;;;5029753;28;20042;-81
2023/05/06 10:11:00;;;;;;;;;;;22.30;1.00;;;;;;5027829;28;20033;-81
2023/05/06 10:13:27;;;;;;;2.55;1.40;;;22.50;1.00;;;;;;5029747;28;19977;-82
2023/05/06 10:15:53;;;;;;;2.35;1.65;;;21.80;1.00;;;;;;5025839;28;20033;-81
2023/05/06 10:18:21;;;;;;;2.33;1.30;;;21.50;1.00;;;;;;5026022;28;20458;-79
2023/05/06 10:20:48;;;;;;;1.75;0.93;;;22.80;1.00;;;;;;5025015;28;20029;-81
2023/05/06 10:23:43;;;;;;;4.40;1.30;;;23.30;1.00;;;;;;5024168;28;20044;-81
2023/05/06 10:26:11;;;;;;;2.67;1.30;;;22.90;1.00;;;;;;5025374;28;20025;-82
2023/05/06 10:28:42;;;;;;;4.00;1.20;;;22.50;1.00;;;;;;5025257;28;20033;-80
2023/05/06 10:31:12;;;;;;;2.88;0.80;;;22.90;1.00;;;;;;5027171;28;20041;-81
2023/05/06 10:33:47;;;;;;;2.17;1.23;;;23.10;1.00;;;;;;5030669;28;20021;-80
2023/05/06 10:36:21;;;;;;;2.65;1.33;;;23.10;1.00;;;;;;5026328;28;20029;-81
2023/05/06 10:38:55;;;;;;;2.88;0.93;;;21.90;1.00;;;;;;5022778;28;20028;-81
2023/05/06 10:41:24;;;;;;;2.97;1.20;;;21.60;1.00;;;;;;5024404;28;20021;-81
2023/05/06 10:43:55;;;;;;;4.30;1.50;;;21.80;1.00;;;;;;5025669;28;20433;-81
2023/05/06 10:46:28;;;;;;;2.45;1.33;;;21.90;1.00;;;;;;5025301;28;20053;-81
2023/05/06 10:49:04;;;;;;;3.42;1.20;;;22.20;1.00;;;;;;5029986;28;20044;-80
2023/05/06 10:51:34;;;;;;;2.50;0.98;;;22.10;1.00;;;;;;5026527;28;20049;-81
2023/05/06 10:54:09;;;;;;;3.72;1.92;;;22.30;1.00;;;;;;5024818;28;20033;-81
2023/05/06 10:57:09;;;;;;;1.90;1.00;;;21.80;1.00;;;;;;5025599;28;20083;-81
2023/05/06 10:59:35;;;;;;;1.88;1.02;;;21.50;1.00;;;;;;5023941;28;20458;-81
2023/05/06 11:02:01;;;;;;;5.97;2.03;;;22.50;1.00;;;;;;5022355;28;20045;-82
2023/05/06 11:04:29;;;;;;;2.53;1.67;;;22.70;1.00;;;;;;5020351;28;20038;-83
2023/05/06 11:07:20;;;;;;;2.03;1.40;;;22.90;1.00;;;;;;5022314;28;20029;-80
2023/05/06 11:10:05;;;;;;;4.57;1.48;;;23.30;1.00;;;;;;5026494;28;20101;-82
2023/05/06 11:12:50;;;;;;;3.80;1.50;;;23.10;1.00;;;;;;5028103;28;20474;-81
2023/05/06 11:15:23;;;;;;;3.20;1.00;;;22.40;1.00;;;;;;5026190;28;20378;-80
2023/05/06 11:17:49;;;;;;;2.05;0.90;;;22.20;1.00;;;;;;5028466;28;20033;-81
2023/05/06 11:20:18;;;;;;;3.08;1.38;;;21.50;1.00;;;;;;5024556;28;20141;-78
2023/05/06 11:22:45;;;;;;;4.10;0.80;;;21.30;1.00;;;;;;5026524;28;20037;-80
2023/05/06 11:25:11;;;;;;;1.85;0.77;;;21.30;1.00;;;;;;5020583;28;20025;-81
2023/05/06 11:27:38;;;;;;;1.85;0.77;;;21.60;1.00;;;;;;5022493;28;20070;-77
2023/05/06 11:30:05;;;;;;;4.10;0.80;;;22.20;1.00;;;;;;5024822;28;20369;-80
2023/05/06 11:32:32;;;;;;;4.50;2.40;;;22.10;1.00;;;;;;5025360;28;20044;-78
2023/05/06 11:34:58;;;;;;;1.92;0.73;;;22.50;1.00;;;;;;5019991;28;20044;-79
2023/05/06 11:37:26;;;;;;;1.58;0.88;;;22.30;1.00;;;;;;5025327;28;20029;-80
2023/05/06 11:39:52;;;;;;;2.88;1.17;;;22.90;1.00;;;;;;5024724;28;20026;-81
2023/05/06 11:42:26;;;;;;;2.05;0.90;;;23.50;1.00;;;;;;5023560;28;20041;-81
2023/05/06 11:44:54;;;;;;;1.70;0.90;;;23.60;1.00;;;;;;5023852;28;20036;-79
2023/05/06 11:47:22;;;;;;;2.08;0.90;;;23.70;1.00;;;;;;5029009;28;20041;-80
2023/05/06 11:49:54;;;;;;;1.42;0.70;;;22.80;1.00;;;;;;5027590;28;20037;-80
2023/05/06 11:52:20;;;;;;;2.63;0.82;;;22.70;1.00;;;;;;5026824;28;20379;-80
2023/05/06 11:54:46;;;;;;;1.50;0.60;;;22.50;1.00;;;;;;5027994;28;20034;-80
2023/05/06 11:57:13;;;;;;;3.47;1.23;;;22.50;1.00;;;;;;5027608;28;20025;-80
2023/05/06 11:59:40;;;;;;;1.27;0.70;;;22.50;1.00;;;;;;5025974;28;20044;-80
2023/05/06 12:02:08;;;;;;;1.45;0.77;;;22.20;1.00;;;;;;5025936;28;20037;-80
2023/05/06 12:04:44;;;;;;;2.83;0.90;;;21.70;1.00;;;;;;5021597;28;20309;-81
2023/05/06 12:07:14;;;;;;;1.65;0.85;;;21.70;1.00;;;;;;5035226;28;20053;-84
2023/05/06 12:09:42;;;;;;;1.23;0.60;;;21.60;1.00;;;;;;5027186;28;20064;-80
2023/05/06 12:12:11;;;;;;;2.38;0.80;;;21.80;1.00;;;;;;5036704;28;20030;-80
2023/05/06 12:14:38;;;;;;;1.35;0.73;;;22.10;1.00;;;;;;5024306;28;20026;-80
2023/05/06 12:17:04;;;;;;;1.40;0.80;;;22.00;1.00;;;;;;5018635;28;20041;-82
2023/05/06 12:19:31;;;;;;;3.80;1.50;;;21.60;1.00;;;;;;5020592;28;20461;-83
2023/05/06 12:22:17;;;;;;;1.80;1.25;;;21.70;1.00;;;;;;5025279;28;20455;-82
2023/05/06 12:24:44;;;;;;;1.67;0.65;;;22.20;1.00;;;;;;5026020;28;20051;-81
2023/05/06 12:27:10;;;;;;;2.90;0.80;;;22.40;1.00;;;;;;5023959;28;20033;-81
2023/05/06 12:29:37;;;;;;;2.85;0.80;;;22.60;1.00;;;;;;5019886;28;20026;-82
2023/05/06 12:32:21;;;;;;;2.83;1.35;;;22.80;1.00;;;;;;5020161;28;20021;-81
2023/05/06 12:34:47;;;;;;;0.88;0.55;;;22.90;1.00;;;;;;5024275;28;20030;-81
2023/05/06 12:37:24;;;;;;;2.38;1.00;;;23.00;1.00;;;;;;5022741;28;20037;-81
2023/05/06 12:39:51;;;;;;;1.02;0.60;;;22.60;1.00;;;;;;5023161;28;20033;-81
2023/05/06 12:42:21;;;;;;;3.10;0.80;;;22.80;1.00;;;;;;5024559;28;20038;-81
2023/05/06 12:44:48;;;;;;;2.63;0.63;;;23.00;1.00;;;;;;5031040;28;20036;-80
2023/05/06 12:47:22;;;;;;;1.13;0.77;;;22.40;1.00;;;;;;5033367;28;20033;-81
2023/05/06 12:49:50;;;;;;;1.73;0.77;;;22.20;1.00;;;;;;5025652;28;20037;-81
2023/05/06 12:52:21;;;;;;;2.00;0.73;;;22.30;1.00;;;;;;5029391;28;20446;-82
2023/05/06 12:54:48;;;;;;;1.00;0.52;;;22.50;1.00;;;;;;5029070;28;20032;-81
2023/05/06 12:57:14;;;;;;;1.52;0.63;;;22.90;1.00;;;;;;5029982;28;20036;-82